Port Hedland Bedout Island, Australia
Current Conditions -  °F | °C
As of 2:00 AM on Friday 24 Oct 2014 (Local Time) from YPPD Reporting Station
Clear Clear  
Wind Chill: 75°   Ceiling: Unl
Heat Index: 75°   Visibility: 6mi
Dew Point: 68°   Wind: 0mph
Humidity: 78%   Direction: NA
Pressure: 29.8"   Gusts: NA
Location:  19.58°S, 119.1°E
Report Text: YPPD 231800Z AUTO 00000KT 9999 // NCD 24/20 Q1009
Loading
Personal Weather Stations






























Interactive Weather Map
Tropical Storm Tracking
New forecast layout! Learn more

10-Day Weather Forecast

Advertisements
Track Severe Weather on mobile